Time;durP1;ratioP1;P1;durP2;ratioP2;P2;SDS_P1;SDS_P2;PMS_P1;PMS_P2;Temp;Humidity;BMP_temperature;BMP_pressure;BME280_temperature;BME280_humidity;BME280_pressure;Samples;Min_cycle;Max_cycle;Signal;HPM_P1;HPM_P2
2022/01/19 00:02:19;;;;;;;2.03;1.73;;;4.60;99.90;;;;;;4893946;29;20490;-80
2022/01/19 00:05:07;;;;;;;2.30;2.10;;;4.50;99.90;;;;;;4900279;29;20439;-79
2022/01/19 00:07:51;;;;;;;1.67;1.57;;;4.60;99.90;;;;;;4914357;29;20434;-80
2022/01/19 00:10:37;;;;;;;2.80;2.00;;;4.60;99.90;;;;;;4917885;29;20399;-80
2022/01/19 00:13:22;;;;;;;2.00;1.80;;;4.60;99.90;;;;;;4907979;29;20983;-80
2022/01/19 00:16:08;;;;;;;1.80;1.70;;;4.50;99.90;;;;;;4908284;29;20413;-80
2022/01/19 00:18:53;;;;;;;2.00;1.80;;;4.60;99.90;;;;;;4894946;29;20388;-80
2022/01/19 00:21:40;;;;;;;1.63;1.53;;;4.60;99.90;;;;;;4894621;29;20528;-80
2022/01/19 00:24:46;;;;;;;2.20;1.73;;;4.60;99.90;;;;;;4918748;29;20952;-79
2022/01/19 00:27:30;;;;;;;5.37;1.83;;;4.60;99.90;;;;;;4913894;29;20455;-80
2022/01/19 00:30:17;;;;;;;2.27;2.07;;;4.50;99.90;;;;;;4914433;29;20386;-80
2022/01/19 00:33:01;;;;;;;1.70;1.60;;;4.50;99.90;;;;;;4914088;29;20401;-79
2022/01/19 00:35:49;;;;;;;1.80;1.70;;;4.50;99.90;;;;;;4914943;29;20559;-79
2022/01/19 00:38:34;;;;;;;1.90;1.80;;;4.50;99.90;;;;;;4927625;29;20386;-80
2022/01/19 00:41:22;;;;;;;2.00;1.80;;;4.50;99.90;;;;;;4912711;29;20813;-80
2022/01/19 00:44:09;;;;;;;2.60;2.40;;;4.50;99.90;;;;;;4888399;29;20457;-80
2022/01/19 00:46:55;;;;;;;1.90;1.80;;;4.60;99.90;;;;;;4910809;29;20455;-80
2022/01/19 00:49:42;;;;;;;1.43;1.33;;;4.70;99.90;;;;;;4926169;29;20420;-79
2022/01/19 00:52:26;;;;;;;2.30;1.93;;;4.50;99.90;;;;;;4925978;29;20383;-80
2022/01/19 00:55:13;;;;;;;1.63;1.50;;;4.50;99.90;;;;;;4925425;29;20410;-80
2022/01/19 00:58:00;;;;;;;1.67;1.57;;;4.50;99.90;;;;;;4912979;29;20427;-79
2022/01/19 01:00:47;;;;;;;1.93;1.83;;;4.60;99.90;;;;;;4906992;29;20989;-80
2022/01/19 01:03:33;;;;;;;1.80;1.70;;;4.50;99.90;;;;;;4907476;29;20463;-80
2022/01/19 01:06:22;;;;;;;1.77;1.67;;;4.30;99.90;;;;;;4906849;29;20532;-79
2022/01/19 01:09:07;;;;;;;3.77;2.20;;;4.30;99.90;;;;;;4917724;29;20379;-80
2022/01/19 01:12:08;;;;;;;2.33;1.60;;;4.30;99.90;;;;;;4925187;29;20453;-79
2022/01/19 01:21:01;;;;;;;1.80;1.70;;;4.50;99.90;;;;;;4906262;29;20554;-80
2022/01/19 01:23:47;;;;;;;1.83;1.73;;;4.50;99.90;;;;;;4906348;29;20805;-79
2022/01/19 01:26:32;;;;;;;2.30;1.80;;;4.30;99.90;;;;;;4898040;29;20439;-79
2022/01/19 01:29:17;;;;;;;2.23;2.03;;;4.30;99.90;;;;;;4889797;29;20402;-79
2022/01/19 01:32:02;;;;;;;2.17;1.97;;;4.20;99.90;;;;;;4906605;29;20432;-80
2022/01/19 01:34:47;;;;;;;2.60;2.30;;;4.20;99.90;;;;;;4905691;29;20429;-80
2022/01/19 01:37:32;;;;;;;3.93;2.20;;;4.10;99.90;;;;;;4886191;29;20389;-80
2022/01/19 01:40:22;;;;;;;2.03;1.90;;;3.90;99.90;;;;;;4886827;29;20988;-79
2022/01/19 01:43:08;;;;;;;1.63;1.53;;;3.80;99.90;;;;;;4887289;29;20435;-79
2022/01/19 01:46:01;;;;;;;1.80;1.70;;;4.00;99.90;;;;;;4886938;29;20448;-79
2022/01/19 01:48:46;;;;;;;1.60;1.50;;;4.10;99.90;;;;;;4886356;29;20458;-80
2022/01/19 01:54:25;;;;;;;2.60;2.40;;;4.20;99.90;;;;;;4934905;29;20466;-79
2022/01/19 01:57:10;;;;;;;2.07;1.97;;;4.20;99.90;;;;;;4933242;29;20419;-79
2022/01/19 01:59:54;;;;;;;2.13;2.03;;;4.00;99.90;;;;;;4911581;29;20527;-79
2022/01/19 02:02:40;;;;;;;3.93;2.10;;;4.00;99.90;;;;;;4898917;29;20393;-80
2022/01/19 02:05:26;;;;;;;2.30;1.80;;;4.10;99.90;;;;;;4903599;29;20367;-77
2022/01/19 02:08:20;;;;;;;2.20;2.00;;;4.00;99.90;;;;;;4951225;29;21003;-80
2022/01/19 02:11:35;;;;;;;3.40;2.00;;;4.00;99.90;;;;;;4949584;29;20400;-79
2022/01/19 02:23:58;;;;;;;2.30;2.20;;;4.00;99.90;;;;;;4904868;29;20387;-79
2022/01/19 02:27:00;;;;;;;2.00;1.90;;;4.10;99.90;;;;;;4904156;29;20495;-79
2022/01/19 02:30:22;;;;;;;2.17;2.07;;;4.10;99.90;;;;;;4907028;29;20415;-79
2022/01/19 02:41:52;;;;;;;3.27;2.63;;;4.10;99.90;;;;;;4845436;29;20419;-80
2022/01/19 02:50:48;;;;;;;2.07;1.97;;;3.80;99.90;;;;;;4910078;29;20408;-77
2022/01/19 02:53:36;;;;;;;3.33;2.30;;;3.90;99.90;;;;;;4911801;29;20421;-78
2022/01/19 02:56:30;;;;;;;2.03;1.93;;;3.80;99.90;;;;;;4899060;29;20474;-78
2022/01/19 02:59:23;;;;;;;2.03;1.87;;;3.70;99.90;;;;;;4910104;29;20508;-79
2022/01/19 03:11:24;;;;;;;2.07;1.80;;;4.00;99.90;;;;;;4941437;29;20964;-80
2022/01/19 03:14:09;;;;;;;1.83;1.70;;;4.00;99.90;;;;;;4955081;29;20412;-80
2022/01/19 03:16:53;;;;;;;3.50;3.20;;;3.90;99.90;;;;;;4966760;28;20445;-79
2022/01/19 03:19:41;;;;;;;3.03;2.53;;;4.00;99.90;;;;;;4976276;28;20380;-79
2022/01/19 03:22:34;;;;;;;4.00;2.13;;;3.90;99.90;;;;;;4945855;29;20397;-79
2022/01/19 03:25:19;;;;;;;3.60;2.10;;;4.00;99.90;;;;;;4933617;29;20398;-79
2022/01/19 03:28:05;;;;;;;3.53;1.50;;;3.80;99.90;;;;;;4932628;29;20945;-80
2022/01/19 03:30:51;;;;;;;2.60;2.50;;;3.80;99.90;;;;;;4931801;29;20399;-79
2022/01/19 03:33:38;;;;;;;3.80;2.07;;;3.90;99.90;;;;;;4932624;29;20411;-79
2022/01/19 03:36:22;;;;;;;3.20;2.80;;;3.90;99.90;;;;;;4926627;29;20885;-80
2022/01/19 03:39:07;;;;;;;2.40;2.20;;;4.00;99.90;;;;;;4913086;29;20923;-80
2022/01/19 03:41:53;;;;;;;2.67;2.47;;;4.00;99.90;;;;;;4913140;29;20378;-79
2022/01/19 03:44:39;;;;;;;2.77;2.50;;;3.90;99.90;;;;;;4913088;29;20448;-78
2022/01/19 03:47:26;;;;;;;3.37;2.10;;;3.70;99.90;;;;;;4916481;29;20508;-78
2022/01/19 03:50:12;;;;;;;3.07;2.70;;;3.60;99.90;;;;;;4917714;29;20415;-79
2022/01/19 03:52:57;;;;;;;2.60;2.17;;;3.70;99.90;;;;;;4904889;29;20792;-78
2022/01/19 03:55:41;;;;;;;2.07;1.87;;;3.70;99.90;;;;;;4931224;29;20445;-79
2022/01/19 03:58:26;;;;;;;2.60;2.40;;;3.50;99.90;;;;;;4879748;29;20446;-77
2022/01/19 04:01:11;;;;;;;3.00;2.07;;;3.70;99.90;;;;;;4878856;29;20437;-78
2022/01/19 04:04:13;;;;;;;2.20;1.97;;;3.60;99.90;;;;;;4891542;29;20477;-79
2022/01/19 04:07:07;;;;;;;1.80;1.70;;;3.50;99.90;;;;;;4898609;29;20507;-76
2022/01/19 04:09:53;;;;;;;2.13;1.80;;;3.50;99.90;;;;;;4906770;29;20405;-76
2022/01/19 04:12:44;;;;;;;2.53;2.43;;;3.70;99.90;;;;;;4930749;29;20390;-77
2022/01/19 04:15:30;;;;;;;2.10;1.90;;;3.50;99.90;;;;;;4930516;29;20404;-77
2022/01/19 04:18:15;;;;;;;2.30;2.10;;;3.50;99.90;;;;;;4911232;29;20387;-78
2022/01/19 04:21:01;;;;;;;1.70;1.60;;;3.60;99.90;;;;;;4880078;29;20486;-75
2022/01/19 04:23:48;;;;;;;2.77;2.37;;;3.70;99.90;;;;;;4869878;29;20410;-76
2022/01/19 04:26:35;;;;;;;1.70;1.60;;;3.80;99.90;;;;;;4868965;29;21078;-76
2022/01/19 04:29:21;;;;;;;2.07;1.97;;;3.60;99.90;;;;;;4881679;29;20396;-79
2022/01/19 04:32:12;;;;;;;4.93;1.70;;;3.70;99.90;;;;;;4889339;29;20451;-79
2022/01/19 04:34:57;;;;;;;2.20;2.10;;;3.60;99.90;;;;;;4906016;29;20427;-78
2022/01/19 04:44:06;;;;;;;2.93;2.37;;;3.70;99.90;;;;;;4902603;29;20451;-78
2022/01/19 04:47:23;;;;;;;2.30;2.10;;;3.60;99.90;;;;;;4922677;29;20503;-78
2022/01/19 05:01:51;;;;;;;3.30;2.10;;;3.40;99.90;;;;;;4996003;28;20424;-76
2022/01/19 05:07:42;;;;;;;2.73;2.30;;;3.30;99.90;;;;;;4947457;29;20437;-78
2022/01/19 05:13:36;;;;;;;4.27;2.70;;;3.40;99.90;;;;;;4918560;29;20381;-78
2022/01/19 05:16:22;;;;;;;3.00;2.80;;;3.30;99.90;;;;;;4915272;29;20426;-78
2022/01/19 05:19:08;;;;;;;3.00;2.80;;;3.30;99.90;;;;;;4914866;29;20491;-79
2022/01/19 05:21:56;;;;;;;2.10;1.90;;;3.20;99.90;;;;;;4941138;28;20457;-78
2022/01/19 05:24:42;;;;;;;3.37;2.50;;;3.30;99.90;;;;;;4947666;29;20449;-78
2022/01/19 05:27:27;;;;;;;3.00;2.50;;;3.30;99.90;;;;;;4943786;29;20432;-80
2022/01/19 05:30:14;;;;;;;4.20;3.53;;;3.30;99.90;;;;;;4911141;29;20379;-80
2022/01/19 05:32:59;;;;;;;3.10;2.77;;;3.30;99.90;;;;;;4924819;29;20412;-80
2022/01/19 05:35:43;;;;;;;3.17;2.87;;;3.30;99.90;;;;;;4855771;29;20751;-80
2022/01/19 05:38:28;;;;;;;2.37;2.27;;;3.40;99.90;;;;;;4868672;29;20400;-79
2022/01/19 05:41:12;;;;;;;3.57;2.93;;;3.30;99.90;;;;;;4867414;29;20423;-79
2022/01/19 05:43:57;;;;;;;3.30;2.93;;;3.50;99.90;;;;;;4861858;29;20412;-80
2022/01/19 05:46:41;;;;;;;3.90;2.33;;;3.20;99.90;;;;;;4877877;29;20489;-78
2022/01/19 05:49:26;;;;;;;3.23;2.93;;;3.30;99.90;;;;;;4883172;29;20470;-80
2022/01/19 05:52:12;;;;;;;3.70;3.10;;;3.20;99.90;;;;;;4867225;29;20502;-79
2022/01/19 05:54:58;;;;;;;3.90;3.50;;;3.10;99.90;;;;;;4878689;29;20429;-79
2022/01/19 05:57:44;;;;;;;4.43;3.27;;;3.20;99.90;;;;;;4870154;29;20474;-79
2022/01/19 06:00:29;;;;;;;7.13;3.23;;;3.20;99.90;;;;;;4864313;29;20611;-79
2022/01/19 06:03:17;;;;;;;2.83;2.63;;;3.20;99.90;;;;;;4875108;29;20426;-79
2022/01/19 06:06:01;;;;;;;3.47;2.93;;;3.10;99.90;;;;;;4882599;29;20437;-79
2022/01/19 06:08:59;;;;;;;3.60;3.30;;;3.10;99.90;;;;;;4936733;29;20952;-79
2022/01/19 06:11:43;;;;;;;4.27;3.70;;;3.20;99.90;;;;;;4921202;29;21008;-79
2022/01/19 06:14:28;;;;;;;2.83;2.63;;;3.10;99.90;;;;;;4921095;29;20431;-79
2022/01/19 06:17:13;;;;;;;4.03;3.73;;;3.20;99.90;;;;;;4916160;29;20443;-79
2022/01/19 06:19:59;;;;;;;4.50;4.07;;;3.30;99.90;;;;;;4896312;29;20408;-79
2022/01/19 06:22:44;;;;;;;4.90;4.40;;;3.40;99.90;;;;;;4895779;29;20448;-80
2022/01/19 06:25:28;;;;;;;3.47;3.27;;;3.20;99.90;;;;;;4905925;29;20404;-79
2022/01/19 06:28:13;;;;;;;3.63;3.27;;;3.10;99.90;;;;;;4901598;29;20503;-79
2022/01/19 06:30:59;;;;;;;3.70;3.40;;;3.10;99.90;;;;;;4909688;29;20931;-79
2022/01/19 06:33:45;;;;;;;3.63;3.33;;;3.00;99.90;;;;;;4907342;29;20447;-80
2022/01/19 06:36:30;;;;;;;3.80;3.23;;;3.10;99.90;;;;;;4887505;29;20384;-80
2022/01/19 06:39:14;;;;;;;3.03;2.83;;;3.20;99.90;;;;;;4846278;29;20454;-80
2022/01/19 06:41:59;;;;;;;10.67;3.80;;;3.00;99.90;;;;;;4924699;29;20382;-80
2022/01/19 06:44:45;;;;;;;3.43;3.17;;;3.20;99.90;;;;;;4909678;29;20428;-80
2022/01/19 06:47:31;;;;;;;3.40;3.20;;;3.10;99.90;;;;;;4942787;28;20512;-79
2022/01/19 06:50:19;;;;;;;3.40;3.20;;;3.00;99.90;;;;;;4932563;29;20486;-80
2022/01/19 06:53:03;;;;;;;4.27;3.20;;;3.00;99.90;;;;;;4956395;28;20946;-79
2022/01/19 06:55:58;;;;;;;3.83;3.43;;;2.90;99.90;;;;;;4936308;29;20430;-79
2022/01/19 06:58:44;;;;;;;3.13;2.13;;;2.80;99.90;;;;;;4930495;29;20425;-79
2022/01/19 07:01:32;;;;;;;3.97;2.90;;;2.90;99.90;;;;;;4959089;29;20451;-79
2022/01/19 07:04:17;;;;;;;4.30;2.57;;;2.70;99.90;;;;;;4940033;29;20418;-80
2022/01/19 07:07:02;;;;;;;2.83;2.63;;;2.70;99.90;;;;;;4951551;29;20482;-79
2022/01/19 07:09:47;;;;;;;4.40;3.63;;;2.60;99.90;;;;;;4947660;28;20484;-80
2022/01/19 07:12:31;;;;;;;4.10;3.70;;;2.60;99.90;;;;;;4965493;28;20750;-79
2022/01/19 07:15:18;;;;;;;4.67;4.00;;;2.40;99.90;;;;;;4985185;28;20471;-79
2022/01/19 07:18:04;;;;;;;4.03;3.43;;;2.40;99.90;;;;;;4983173;28;20452;-79
2022/01/19 07:20:50;;;;;;;6.80;4.70;;;2.30;99.90;;;;;;4973020;28;20411;-79
2022/01/19 07:23:35;;;;;;;3.70;3.40;;;2.40;99.90;;;;;;4967994;28;20567;-79
2022/01/19 07:26:21;;;;;;;4.23;3.43;;;2.40;99.90;;;;;;4974809;28;20514;-79
2022/01/19 07:29:06;;;;;;;3.70;3.33;;;2.50;99.90;;;;;;4959431;28;20415;-80
2022/01/19 07:31:51;;;;;;;6.60;5.27;;;2.40;99.90;;;;;;5001005;28;20511;-79
2022/01/19 07:34:35;;;;;;;7.33;4.47;;;2.20;99.90;;;;;;4982316;28;20430;-79
2022/01/19 07:37:20;;;;;;;9.17;5.33;;;2.50;99.90;;;;;;5004642;28;20440;-79
2022/01/19 07:40:05;;;;;;;5.57;4.30;;;2.30;99.90;;;;;;4976768;28;20396;-78
2022/01/19 07:42:52;;;;;;;5.77;5.27;;;2.40;99.90;;;;;;4926579;28;20777;-78
2022/01/19 07:45:37;;;;;;;15.13;5.17;;;2.40;99.90;;;;;;4960428;28;20416;-78
2022/01/19 07:48:23;;;;;;;3.57;3.27;;;2.40;99.90;;;;;;4985497;28;20411;-79
2022/01/19 07:51:07;;;;;;;5.40;4.90;;;2.50;99.90;;;;;;4960233;28;20461;-79
2022/01/19 07:53:52;;;;;;;6.17;3.50;;;2.30;99.90;;;;;;4940912;29;20860;-79
2022/01/19 07:56:37;;;;;;;4.80;4.40;;;2.50;99.90;;;;;;4962424;28;20458;-78
2022/01/19 07:59:23;;;;;;;5.57;4.20;;;2.50;99.90;;;;;;4968905;28;20525;-79
2022/01/19 08:02:11;;;;;;;6.07;4.20;;;2.60;99.90;;;;;;4918612;29;20463;-79
2022/01/19 08:04:56;;;;;;;4.10;3.67;;;2.60;99.90;;;;;;4931603;28;20492;-79
2022/01/19 08:07:41;;;;;;;6.03;5.20;;;2.70;99.90;;;;;;4915273;29;20946;-79
2022/01/19 08:10:28;;;;;;;7.70;4.90;;;2.70;99.90;;;;;;4877792;29;20442;-80
2022/01/19 08:13:15;;;;;;;3.93;3.63;;;3.00;99.90;;;;;;4886561;29;20400;-80
2022/01/19 08:16:00;;;;;;;4.87;4.13;;;3.20;99.90;;;;;;4884406;29;20408;-80
2022/01/19 08:18:44;;;;;;;4.87;4.00;;;3.60;99.90;;;;;;4875197;29;20444;-78
2022/01/19 08:21:29;;;;;;;7.50;5.53;;;3.80;99.90;;;;;;4878312;29;20420;-79
2022/01/19 08:24:14;;;;;;;7.30;4.77;;;3.90;99.90;;;;;;4866392;29;20782;-80
2022/01/19 08:26:58;;;;;;;4.50;4.10;;;4.00;99.90;;;;;;4880801;29;20976;-80
2022/01/19 08:29:43;;;;;;;3.77;3.47;;;4.00;99.90;;;;;;4874475;29;20427;-80
2022/01/19 08:32:27;;;;;;;5.50;4.10;;;4.30;99.90;;;;;;4886142;29;20410;-79
2022/01/19 08:35:12;;;;;;;4.53;4.17;;;4.50;99.90;;;;;;4931343;29;20482;-80
2022/01/19 08:37:56;;;;;;;5.13;4.47;;;4.50;99.90;;;;;;4929755;29;20468;-80
2022/01/19 08:40:41;;;;;;;4.50;4.10;;;4.70;99.90;;;;;;4931084;29;20390;-81
2022/01/19 08:43:25;;;;;;;7.47;5.27;;;4.90;99.90;;;;;;4937658;29;20425;-81
2022/01/19 08:46:10;;;;;;;4.40;3.97;;;5.00;99.90;;;;;;4956714;28;20420;-80
2022/01/19 08:48:55;;;;;;;5.93;5.33;;;5.90;99.90;;;;;;5009698;28;20414;-81
2022/01/19 08:51:41;;;;;;;6.00;4.70;;;6.50;99.90;;;;;;5015426;28;20419;-80
2022/01/19 08:54:26;;;;;;;4.67;4.27;;;7.10;99.90;;;;;;5013433;28;20470;-80
2022/01/19 08:57:10;;;;;;;7.10;5.03;;;7.80;99.90;;;;;;5010046;28;20988;-80
2022/01/19 08:59:56;;;;;;;4.53;4.13;;;7.80;99.90;;;;;;4994619;28;20442;-80
2022/01/19 09:02:41;;;;;;;6.40;4.50;;;8.10;99.90;;;;;;5005697;28;20487;-80
2022/01/19 09:05:25;;;;;;;6.03;3.70;;;8.70;99.90;;;;;;4995201;28;20440;-81
2022/01/19 09:08:12;;;;;;;5.90;3.83;;;9.20;99.90;;;;;;5014980;28;20937;-80
2022/01/19 09:10:58;;;;;;;10.70;3.07;;;8.20;99.90;;;;;;4987454;28;20513;-79
2022/01/19 09:13:44;;;;;;;3.60;3.20;;;7.60;99.90;;;;;;5016936;28;20453;-79
2022/01/19 09:16:28;;;;;;;4.60;3.50;;;6.60;99.90;;;;;;4991480;28;20418;-81
2022/01/19 09:19:13;;;;;;;3.80;2.67;;;6.20;99.90;;;;;;4997541;28;20880;-81
2022/01/19 09:21:57;;;;;;;3.07;2.87;;;6.00;99.90;;;;;;4994177;28;22321;-79
2022/01/19 09:24:43;;;;;;;3.50;3.20;;;6.20;99.90;;;;;;5014235;28;20431;-80
2022/01/19 09:27:27;;;;;;;3.43;2.57;;;5.80;99.90;;;;;;5011863;28;20473;-81
2022/01/19 09:30:16;;;;;;;6.07;2.90;;;6.10;99.90;;;;;;5012288;28;20407;-80
2022/01/19 09:33:06;;;;;;;2.60;2.40;;;5.80;99.90;;;;;;5009544;28;20811;-81
2022/01/19 09:36:05;;;;;;;3.70;3.20;;;5.80;99.90;;;;;;5019790;28;20481;-82
2022/01/19 09:38:50;;;;;;;6.27;3.87;;;6.50;99.90;;;;;;5023869;28;20423;-81
2022/01/19 09:41:35;;;;;;;6.40;3.93;;;8.80;99.90;;;;;;5013266;28;20452;-78
2022/01/19 09:44:22;;;;;;;4.57;3.27;;;9.80;99.90;;;;;;4968247;29;20466;-80
2022/01/19 09:47:08;;;;;;;3.53;3.23;;;9.00;99.90;;;;;;4931066;29;21015;-78
2022/01/19 09:49:52;;;;;;;9.87;4.00;;;7.80;99.90;;;;;;4906008;29;20793;-80
2022/01/19 09:52:39;;;;;;;7.50;3.60;;;7.40;99.90;;;;;;4915497;29;20857;-82
2022/01/19 09:55:23;;;;;;;9.00;5.63;;;8.40;99.90;;;;;;4915656;29;20967;-81
2022/01/19 09:58:10;;;;;;;3.90;3.40;;;10.00;99.90;;;;;;4915439;29;20422;-79
2022/01/19 10:00:55;;;;;;;3.80;3.40;;;10.90;99.90;;;;;;4887667;29;20449;-82
2022/01/19 10:03:40;;;;;;;3.63;2.63;;;9.40;99.90;;;;;;4905864;29;20475;-80
2022/01/19 10:06:24;;;;;;;9.67;4.30;;;9.90;99.90;;;;;;4910218;29;20518;-81
2022/01/19 10:09:09;;;;;;;4.70;2.97;;;10.40;99.90;;;;;;4910598;29;20443;-81
2022/01/19 10:18:43;;;;;;;6.40;4.00;;;6.70;99.90;;;;;;4978228;28;20434;-80
2022/01/19 10:21:30;;;;;;;5.33;3.13;;;6.30;99.90;;;;;;4965756;28;20561;-81
2022/01/19 10:24:14;;;;;;;5.87;3.50;;;6.30;99.90;;;;;;4958237;28;20779;-79
2022/01/19 10:27:30;;;;;;;7.13;4.80;;;5.50;99.90;;;;;;4974664;28;20451;-80
2022/01/19 10:30:24;;;;;;;13.33;4.13;;;5.50;99.90;;;;;;4988411;28;20880;-81
2022/01/19 10:33:17;;;;;;;15.30;5.37;;;4.90;99.90;;;;;;4962915;28;20430;-81
2022/01/19 10:36:04;;;;;;;11.90;4.43;;;4.70;99.90;;;;;;4971600;28;21006;-82
2022/01/19 10:38:57;;;;;;;8.83;5.13;;;4.90;99.90;;;;;;4973734;28;20541;-81
2022/01/19 10:41:57;;;;;;;7.93;4.03;;;4.80;99.90;;;;;;4969982;28;20905;-80
2022/01/19 10:44:48;;;;;;;4.60;3.93;;;4.60;99.90;;;;;;4972974;28;20484;-81
2022/01/19 10:47:53;;;;;;;5.17;4.67;;;4.70;99.90;;;;;;4971592;28;20783;-81
2022/01/19 10:50:38;;;;;;;11.87;5.00;;;4.50;99.90;;;;;;4971204;28;20508;-81
2022/01/19 10:53:22;;;;;;;5.03;3.57;;;4.20;99.90;;;;;;5008374;28;20459;-81
2022/01/19 10:56:24;;;;;;;2.50;2.30;;;4.30;99.90;;;;;;5008844;28;20455;-79
2022/01/19 10:59:12;;;;;;;5.43;4.13;;;4.10;99.90;;;;;;4995615;28;20463;-80
2022/01/19 11:02:03;;;;;;;6.13;5.00;;;4.30;99.90;;;;;;4995542;28;20414;-80
2022/01/19 11:04:47;;;;;;;10.63;4.70;;;4.40;99.90;;;;;;5008040;28;20405;-81
2022/01/19 11:07:32;;;;;;;3.80;3.60;;;4.50;99.90;;;;;;5009712;28;20916;-81
2022/01/19 11:10:18;;;;;;;8.77;4.00;;;4.30;99.90;;;;;;5013300;28;20945;-81
2022/01/19 11:13:05;;;;;;;4.13;3.73;;;4.50;99.90;;;;;;5010052;28;20394;-80
2022/01/19 11:15:50;;;;;;;5.73;5.13;;;4.80;99.90;;;;;;4983698;28;20774;-81
2022/01/19 11:18:37;;;;;;;10.77;5.07;;;4.10;99.90;;;;;;5024566;28;20430;-79
2022/01/19 11:21:28;;;;;;;12.50;5.50;;;4.30;99.90;;;;;;4986776;28;20460;-81
2022/01/19 11:24:32;;;;;;;11.33;5.50;;;4.10;99.90;;;;;;4981163;28;20881;-80
2022/01/19 11:27:17;;;;;;;13.43;4.70;;;4.10;99.90;;;;;;4992395;28;20459;-81
2022/01/19 11:30:13;;;;;;;6.10;4.70;;;4.30;99.90;;;;;;5014364;28;20482;-80
2022/01/19 11:33:25;;;;;;;5.50;4.40;;;3.80;99.90;;;;;;5013000;28;20417;-81
2022/01/19 11:36:26;;;;;;;9.00;5.10;;;3.90;99.90;;;;;;4995809;28;20542;-80
2022/01/19 11:39:20;;;;;;;8.90;5.20;;;3.70;99.90;;;;;;5014142;28;20426;-80
2022/01/19 11:42:05;;;;;;;11.37;5.43;;;4.20;99.90;;;;;;4999992;28;20441;-80
2022/01/19 11:44:51;;;;;;;6.17;4.93;;;4.10;99.90;;;;;;5016798;28;20441;-80
2022/01/19 11:47:38;;;;;;;6.03;4.63;;;4.10;99.90;;;;;;5003003;28;21043;-80
2022/01/19 11:50:23;;;;;;;9.47;5.57;;;4.10;99.90;;;;;;5014539;28;20445;-80
2022/01/19 11:53:10;;;;;;;6.10;5.00;;;3.90;99.90;;;;;;5016854;28;20939;-81
2022/01/19 11:56:11;;;;;;;6.90;4.90;;;3.60;99.90;;;;;;5015882;28;20696;-78
2022/01/19 11:59:06;;;;;;;8.43;5.47;;;3.80;99.90;;;;;;4956117;28;20452;-81
2022/01/19 12:01:51;;;;;;;5.90;4.00;;;3.80;99.90;;;;;;4957802;28;20526;-81
2022/01/19 12:04:59;;;;;;;8.70;5.20;;;3.60;99.90;;;;;;4917463;28;20534;-80
2022/01/19 12:08:10;;;;;;;8.13;5.03;;;3.30;99.90;;;;;;4909814;29;20527;-80
2022/01/19 12:10:58;;;;;;;5.70;5.00;;;3.60;99.90;;;;;;4900911;29;20491;-80
2022/01/19 12:13:59;;;;;;;11.93;6.37;;;3.50;99.90;;;;;;4897339;29;20440;-81
2022/01/19 12:16:59;;;;;;;13.80;6.87;;;3.90;99.90;;;;;;4915187;29;20546;-81
2022/01/19 12:19:45;;;;;;;7.40;5.27;;;4.00;99.90;;;;;;4905496;29;20448;-81
2022/01/19 12:22:34;;;;;;;10.03;6.20;;;4.10;99.90;;;;;;4898386;29;20442;-80
2022/01/19 12:25:20;;;;;;;6.80;5.90;;;3.90;99.90;;;;;;4899667;29;20456;-80
2022/01/19 12:28:04;;;;;;;10.80;6.33;;;4.20;99.90;;;;;;4884421;29;20531;-81
2022/01/19 12:30:49;;;;;;;9.53;5.60;;;4.30;99.90;;;;;;4933869;29;20504;-80
2022/01/19 12:33:35;;;;;;;7.93;5.00;;;4.10;99.90;;;;;;4940979;29;20464;-81
2022/01/19 12:36:39;;;;;;;8.60;6.20;;;4.50;99.90;;;;;;4926399;29;20431;-81
2022/01/19 12:39:39;;;;;;;8.80;5.43;;;4.50;99.90;;;;;;4952185;28;20868;-80
2022/01/19 12:42:31;;;;;;;16.23;6.33;;;4.50;99.90;;;;;;5010785;28;20405;-80
2022/01/19 12:45:26;;;;;;;14.20;5.90;;;4.40;99.90;;;;;;4998174;28;20462;-78
2022/01/19 12:48:33;;;;;;;13.70;7.37;;;4.70;99.90;;;;;;4987392;28;20451;-78
2022/01/19 12:51:39;;;;;;;11.27;6.77;;;4.40;99.90;;;;;;4975851;28;20418;-79
2022/01/19 12:54:26;;;;;;;20.67;5.60;;;4.40;99.90;;;;;;4962194;28;20400;-80
2022/01/19 12:57:15;;;;;;;8.13;5.60;;;4.30;99.90;;;;;;4957816;28;20444;-80
2022/01/19 12:59:59;;;;;;;10.97;7.07;;;4.50;99.90;;;;;;4973982;28;20465;-81
2022/01/19 13:02:44;;;;;;;7.40;5.40;;;4.40;99.90;;;;;;4979952;28;20450;-80
2022/01/19 13:05:30;;;;;;;9.60;7.00;;;4.10;99.90;;;;;;4918644;29;20445;-80
2022/01/19 13:08:24;;;;;;;7.83;6.07;;;3.90;99.90;;;;;;4930480;29;20470;-80
2022/01/19 13:11:27;;;;;;;6.90;5.97;;;4.10;99.90;;;;;;4934919;29;20503;-80
2022/01/19 13:14:13;;;;;;;12.90;5.13;;;4.00;99.90;;;;;;4941520;29;20982;-81
2022/01/19 13:16:57;;;;;;;12.83;4.07;;;4.10;99.90;;;;;;4922029;29;20412;-81
2022/01/19 13:19:42;;;;;;;9.47;6.03;;;3.70;99.90;;;;;;4935111;29;20766;-81
2022/01/19 13:22:27;;;;;;;10.77;6.50;;;3.90;99.90;;;;;;4950914;28;20463;-80
2022/01/19 13:25:23;;;;;;;11.80;6.43;;;4.10;99.90;;;;;;4963529;28;20428;-81
2022/01/19 13:28:07;;;;;;;7.73;5.93;;;4.20;99.90;;;;;;4980843;28;20457;-81
2022/01/19 13:30:57;;;;;;;8.33;6.93;;;4.10;99.90;;;;;;4986779;28;20478;-80
2022/01/19 13:33:51;;;;;;;8.77;6.07;;;4.00;99.90;;;;;;4987160;28;20405;-81
2022/01/19 13:36:36;;;;;;;12.10;7.03;;;4.10;99.90;;;;;;5007685;28;20477;-79
2022/01/19 13:39:23;;;;;;;9.03;7.30;;;4.10;99.90;;;;;;5017602;28;20439;-81
2022/01/19 13:42:07;;;;;;;5.30;3.70;;;4.10;99.90;;;;;;5010152;28;20415;-80
2022/01/19 13:44:52;;;;;;;16.77;8.67;;;3.80;99.90;;;;;;5018602;28;20454;-80
2022/01/19 13:48:05;;;;;;;9.70;6.07;;;4.00;99.90;;;;;;4999013;28;20442;-80
2022/01/19 13:50:54;;;;;;;8.33;6.73;;;3.80;99.90;;;;;;4996829;28;20452;-80
2022/01/19 13:53:42;;;;;;;12.70;7.63;;;3.70;99.90;;;;;;5015353;28;20883;-80
2022/01/19 13:56:29;;;;;;;9.67;6.47;;;3.80;99.90;;;;;;5014491;28;20414;-80
2022/01/19 13:59:17;;;;;;;9.97;7.70;;;3.70;99.90;;;;;;4998296;28;20916;-80
2022/01/19 14:02:14;;;;;;;11.97;8.00;;;3.80;99.90;;;;;;4997841;28;20471;-80
2022/01/19 14:05:00;;;;;;;5.93;5.33;;;3.80;99.90;;;;;;4999844;28;20438;-80
2022/01/19 14:07:46;;;;;;;7.77;6.83;;;3.70;99.90;;;;;;5018934;28;20463;-80
2022/01/19 14:10:41;;;;;;;10.80;8.00;;;3.60;99.90;;;;;;5000834;28;20367;-80
2022/01/19 14:13:30;;;;;;;12.97;8.20;;;4.00;99.90;;;;;;5028658;28;20911;-80
2022/01/19 14:16:37;;;;;;;11.43;8.20;;;3.90;99.90;;;;;;5026562;28;20390;-80
2022/01/19 14:19:25;;;;;;;12.50;7.53;;;3.70;99.90;;;;;;5019101;28;20430;-79
2022/01/19 14:22:14;;;;;;;9.33;6.20;;;3.80;99.90;;;;;;5001006;28;20489;-79
2022/01/19 14:25:03;;;;;;;12.10;7.87;;;3.90;99.90;;;;;;5010895;28;20410;-80
2022/01/19 14:27:52;;;;;;;9.87;7.77;;;3.90;99.90;;;;;;4993941;28;20457;-81
2022/01/19 14:30:37;;;;;;;9.13;8.17;;;3.90;99.90;;;;;;5014273;28;20386;-81
2022/01/19 14:33:22;;;;;;;13.40;8.40;;;3.80;99.90;;;;;;5011189;28;20415;-81
2022/01/19 14:36:07;;;;;;;9.87;6.57;;;3.90;99.90;;;;;;5009377;28;20958;-81
2022/01/19 14:38:59;;;;;;;10.87;7.70;;;4.00;99.90;;;;;;5004811;28;20953;-81
2022/01/19 14:41:44;;;;;;;12.70;7.40;;;3.70;99.90;;;;;;4998331;28;20746;-81
2022/01/19 14:44:40;;;;;;;19.53;8.33;;;3.60;99.90;;;;;;5000403;28;20931;-80
2022/01/19 14:47:37;;;;;;;10.90;7.13;;;3.70;99.90;;;;;;5001665;28;20494;-82
2022/01/19 14:50:32;;;;;;;14.63;8.60;;;3.50;99.90;;;;;;5014024;28;20468;-81
2022/01/19 14:53:17;;;;;;;7.93;6.93;;;3.60;99.90;;;;;;4996592;28;20414;-81
2022/01/19 14:56:02;;;;;;;9.90;7.67;;;3.40;99.90;;;;;;5013366;28;20403;-81
2022/01/19 14:58:57;;;;;;;8.37;7.07;;;3.50;99.90;;;;;;5016166;28;20785;-81
2022/01/19 15:01:45;;;;;;;15.37;7.43;;;3.80;99.90;;;;;;5012086;28;20854;-81
2022/01/19 15:04:35;;;;;;;16.03;9.43;;;3.60;99.90;;;;;;5014111;28;20494;-82
2022/01/19 15:07:20;;;;;;;8.33;7.43;;;3.60;99.90;;;;;;4981703;28;20437;-81
2022/01/19 15:10:08;;;;;;;16.60;10.23;;;3.80;99.90;;;;;;4994593;28;20534;-81
2022/01/19 15:12:53;;;;;;;11.37;8.23;;;3.70;99.90;;;;;;5007176;28;20435;-81
2022/01/19 15:15:38;;;;;;;12.30;8.63;;;3.90;99.90;;;;;;5010877;28;20431;-81
2022/01/19 15:18:23;;;;;;;10.50;7.60;;;4.00;99.90;;;;;;5007126;28;20455;-80
2022/01/19 15:21:28;;;;;;;9.77;6.10;;;3.90;99.90;;;;;;4948418;28;20420;-81
2022/01/19 15:24:13;;;;;;;18.10;9.97;;;3.80;99.90;;;;;;4972051;28;20482;-81
2022/01/19 15:26:57;;;;;;;16.30;10.63;;;3.90;99.90;;;;;;4963308;28;20462;-82
2022/01/19 15:29:42;;;;;;;11.97;8.77;;;4.00;99.90;;;;;;4934872;28;20440;-81
2022/01/19 15:32:26;;;;;;;11.20;9.03;;;4.10;99.90;;;;;;4951417;29;20449;-81
2022/01/19 15:35:11;;;;;;;16.30;10.13;;;4.20;99.90;;;;;;4957711;28;20396;-81
2022/01/19 15:37:57;;;;;;;26.33;10.67;;;4.20;99.90;;;;;;4973588;28;20413;-81
2022/01/19 15:40:43;;;;;;;22.53;10.33;;;4.40;99.90;;;;;;4961931;28;20434;-82
2022/01/19 15:43:28;;;;;;;22.63;8.60;;;4.40;99.90;;;;;;4975533;28;20528;-81
2022/01/19 15:46:12;;;;;;;9.50;7.77;;;4.40;99.90;;;;;;4975783;28;20428;-82
2022/01/19 15:48:57;;;;;;;17.60;8.53;;;4.50;99.90;;;;;;4953456;29;20449;-82
2022/01/19 15:51:42;;;;;;;10.07;8.17;;;4.30;99.90;;;;;;4970803;28;20393;-81
2022/01/19 15:54:27;;;;;;;12.47;9.00;;;4.30;99.90;;;;;;5024667;28;20743;-80
2022/01/19 15:57:13;;;;;;;8.90;5.00;;;4.30;99.90;;;;;;5018812;28;20401;-81
2022/01/19 15:59:58;;;;;;;6.43;5.60;;;4.20;99.90;;;;;;5024299;28;20464;-81